sensor_id;sensor_type;location;lat;lon;timestamp;temperature;humidity
65044;DHT22;51617;48.158;16.464;2022-09-03T00:02:06;15.80;83.20
65044;DHT22;51617;48.158;16.464;2022-09-03T00:07:22;15.80;83.30
65044;DHT22;51617;48.158;16.464;2022-09-03T00:09:52;15.80;83.50
65044;DHT22;51617;48.158;16.464;2022-09-03T00:12:23;15.70;83.10
65044;DHT22;51617;48.158;16.464;2022-09-03T00:14:50;15.60;83.90
65044;DHT22;51617;48.158;16.464;2022-09-03T00:17:30;15.50;83.80
65044;DHT22;51617;48.158;16.464;2022-09-03T00:19:59;15.60;84.80
65044;DHT22;51617;48.158;16.464;2022-09-03T00:22:27;15.60;84.40
65044;DHT22;51617;48.158;16.464;2022-09-03T00:24:57;15.60;84.20
65044;DHT22;51617;48.158;16.464;2022-09-03T00:27:25;15.60;84.40
65044;DHT22;51617;48.158;16.464;2022-09-03T00:30:03;15.60;84.40
65044;DHT22;51617;48.158;16.464;2022-09-03T00:32:39;15.60;84.00
65044;DHT22;51617;48.158;16.464;2022-09-03T00:35:06;15.60;83.70
65044;DHT22;51617;48.158;16.464;2022-09-03T00:37:34;15.60;84.20
65044;DHT22;51617;48.158;16.464;2022-09-03T00:40:00;15.50;85.50
65044;DHT22;51617;48.158;16.464;2022-09-03T00:52:40;15.50;83.80
65044;DHT22;51617;48.158;16.464;2022-09-03T01:00:38;15.40;85.10
65044;DHT22;51617;48.158;16.464;2022-09-03T01:03:11;15.30;84.80
65044;DHT22;51617;48.158;16.464;2022-09-03T01:13:19;15.50;84.50
65044;DHT22;51617;48.158;16.464;2022-09-03T01:34:09;15.10;87.50
65044;DHT22;51617;48.158;16.464;2022-09-03T01:39:43;15.00;87.00
65044;DHT22;51617;48.158;16.464;2022-09-03T02:00:50;15.10;87.30
65044;DHT22;51617;48.158;16.464;2022-09-03T02:03:21;15.10;87.40
65044;DHT22;51617;48.158;16.464;2022-09-03T02:05:47;15.00;87.90
65044;DHT22;51617;48.158;16.464;2022-09-03T02:08:14;14.90;87.40
65044;DHT22;51617;48.158;16.464;2022-09-03T02:10:48;14.90;87.50
65044;DHT22;51617;48.158;16.464;2022-09-03T02:13:56;15.00;88.20
65044;DHT22;51617;48.158;16.464;2022-09-03T02:16:06;15.00;88.40
65044;DHT22;51617;48.158;16.464;2022-09-03T02:18:39;14.90;88.50
65044;DHT22;51617;48.158;16.464;2022-09-03T02:21:06;14.90;88.60
65044;DHT22;51617;48.158;16.464;2022-09-03T02:23:31;14.90;89.40
65044;DHT22;51617;48.158;16.464;2022-09-03T02:25:58;14.80;88.10
65044;DHT22;51617;48.158;16.464;2022-09-03T02:28:25;14.80;88.30
65044;DHT22;51617;48.158;16.464;2022-09-03T02:30:51;14.80;89.00
65044;DHT22;51617;48.158;16.464;2022-09-03T02:33:16;14.80;88.90
65044;DHT22;51617;48.158;16.464;2022-09-03T02:35:42;14.70;88.50
65044;DHT22;51617;48.158;16.464;2022-09-03T02:38:29;14.70;89.50
65044;DHT22;51617;48.158;16.464;2022-09-03T02:40:53;14.70;89.70
65044;DHT22;51617;48.158;16.464;2022-09-03T02:43:25;14.70;89.70
65044;DHT22;51617;48.158;16.464;2022-09-03T02:45:53;14.70;89.70
65044;DHT22;51617;48.158;16.464;2022-09-03T02:48:21;14.60;89.00
65044;DHT22;51617;48.158;16.464;2022-09-03T02:50:47;14.70;89.70
65044;DHT22;51617;48.158;16.464;2022-09-03T02:53:12;14.70;90.00
65044;DHT22;51617;48.158;16.464;2022-09-03T02:55:38;14.50;90.20
65044;DHT22;51617;48.158;16.464;2022-09-03T02:58:03;14.40;90.00
65044;DHT22;51617;48.158;16.464;2022-09-03T03:00:31;14.40;90.00
65044;DHT22;51617;48.158;16.464;2022-09-03T03:02:57;14.50;90.40
65044;DHT22;51617;48.158;16.464;2022-09-03T03:05:31;14.50;90.00
65044;DHT22;51617;48.158;16.464;2022-09-03T03:08:00;14.50;90.20
65044;DHT22;51617;48.158;16.464;2022-09-03T03:10:26;14.50;90.30
65044;DHT22;51617;48.158;16.464;2022-09-03T03:12:51;14.40;90.10
65044;DHT22;51617;48.158;16.464;2022-09-03T03:15:17;14.40;90.50
65044;DHT22;51617;48.158;16.464;2022-09-03T03:17:43;14.40;90.40
65044;DHT22;51617;48.158;16.464;2022-09-03T03:20:09;14.40;90.10
65044;DHT22;51617;48.158;16.464;2022-09-03T03:22:34;14.40;90.60
65044;DHT22;51617;48.158;16.464;2022-09-03T03:25:00;14.30;90.60
65044;DHT22;51617;48.158;16.464;2022-09-03T03:27:26;14.40;90.80
65044;DHT22;51617;48.158;16.464;2022-09-03T03:29:52;14.30;90.80
65044;DHT22;51617;48.158;16.464;2022-09-03T03:32:19;14.20;90.80
65044;DHT22;51617;48.158;16.464;2022-09-03T03:34:44;14.10;90.80
65044;DHT22;51617;48.158;16.464;2022-09-03T03:37:10;14.20;91.10
65044;DHT22;51617;48.158;16.464;2022-09-03T03:39:35;14.10;91.40
65044;DHT22;51617;48.158;16.464;2022-09-03T03:42:01;14.00;91.40
65044;DHT22;51617;48.158;16.464;2022-09-03T03:44:26;14.00;91.00
65044;DHT22;51617;48.158;16.464;2022-09-03T03:46:53;14.10;91.50
65044;DHT22;51617;48.158;16.464;2022-09-03T03:49:18;13.90;91.90
65044;DHT22;51617;48.158;16.464;2022-09-03T03:51:44;13.90;91.80
65044;DHT22;51617;48.158;16.464;2022-09-03T03:54:09;14.00;91.90
65044;DHT22;51617;48.158;16.464;2022-09-03T03:56:35;14.10;91.70
65044;DHT22;51617;48.158;16.464;2022-09-03T03:59:01;14.00;91.80
65044;DHT22;51617;48.158;16.464;2022-09-03T04:01:27;14.00;91.80
65044;DHT22;51617;48.158;16.464;2022-09-03T04:03:56;13.90;91.70
65044;DHT22;51617;48.158;16.464;2022-09-03T04:06:22;13.90;91.80
65044;DHT22;51617;48.158;16.464;2022-09-03T04:08:47;13.80;91.50
65044;DHT22;51617;48.158;16.464;2022-09-03T04:11:14;13.90;91.90
65044;DHT22;51617;48.158;16.464;2022-09-03T04:13:41;13.80;91.70
65044;DHT22;51617;48.158;16.464;2022-09-03T04:16:11;13.70;91.90
65044;DHT22;51617;48.158;16.464;2022-09-03T04:18:37;13.70;92.00
65044;DHT22;51617;48.158;16.464;2022-09-03T04:21:04;13.90;92.00
65044;DHT22;51617;48.158;16.464;2022-09-03T04:23:31;13.90;92.10
65044;DHT22;51617;48.158;16.464;2022-09-03T04:25:57;13.90;92.10
65044;DHT22;51617;48.158;16.464;2022-09-03T04:28:22;13.80;92.10
65044;DHT22;51617;48.158;16.464;2022-09-03T04:30:48;13.80;92.00
65044;DHT22;51617;48.158;16.464;2022-09-03T04:33:14;13.90;91.80
65044;DHT22;51617;48.158;16.464;2022-09-03T04:35:39;13.80;92.00
65044;DHT22;51617;48.158;16.464;2022-09-03T04:38:05;13.70;92.10
65044;DHT22;51617;48.158;16.464;2022-09-03T04:40:31;13.70;92.30
65044;DHT22;51617;48.158;16.464;2022-09-03T04:42:57;13.80;92.10
65044;DHT22;51617;48.158;16.464;2022-09-03T04:45:23;14.00;92.20
65044;DHT22;51617;48.158;16.464;2022-09-03T04:47:59;14.00;92.10
65044;DHT22;51617;48.158;16.464;2022-09-03T04:50:25;14.00;92.00
65044;DHT22;51617;48.158;16.464;2022-09-03T04:52:54;14.00;92.20
65044;DHT22;51617;48.158;16.464;2022-09-03T04:55:22;13.90;92.00
65044;DHT22;51617;48.158;16.464;2022-09-03T04:57:48;14.00;91.90
65044;DHT22;51617;48.158;16.464;2022-09-03T05:00:13;14.10;92.00
65044;DHT22;51617;48.158;16.464;2022-09-03T05:02:43;14.10;91.70
65044;DHT22;51617;48.158;16.464;2022-09-03T05:05:08;14.10;92.00
65044;DHT22;51617;48.158;16.464;2022-09-03T05:07:33;14.20;92.10
65044;DHT22;51617;48.158;16.464;2022-09-03T05:10:12;14.20;91.90
65044;DHT22;51617;48.158;16.464;2022-09-03T05:12:45;14.30;91.80
65044;DHT22;51617;48.158;16.464;2022-09-03T05:15:10;14.40;91.40
65044;DHT22;51617;48.158;16.464;2022-09-03T05:17:36;14.50;91.50
65044;DHT22;51617;48.158;16.464;2022-09-03T05:20:03;14.50;91.50
65044;DHT22;51617;48.158;16.464;2022-09-03T05:22:30;14.50;91.50
65044;DHT22;51617;48.158;16.464;2022-09-03T05:24:56;14.50;91.20
65044;DHT22;51617;48.158;16.464;2022-09-03T05:27:21;14.50;91.40
65044;DHT22;51617;48.158;16.464;2022-09-03T05:29:47;14.60;91.70
65044;DHT22;51617;48.158;16.464;2022-09-03T05:32:13;14.60;91.30
65044;DHT22;51617;48.158;16.464;2022-09-03T05:34:40;14.70;91.20
65044;DHT22;51617;48.158;16.464;2022-09-03T05:37:06;14.80;91.20
65044;DHT22;51617;48.158;16.464;2022-09-03T05:39:31;14.90;91.40
65044;DHT22;51617;48.158;16.464;2022-09-03T05:41:57;15.00;91.20
65044;DHT22;51617;48.158;16.464;2022-09-03T05:44:22;15.00;90.90
65044;DHT22;51617;48.158;16.464;2022-09-03T05:46:48;15.10;91.20
65044;DHT22;51617;48.158;16.464;2022-09-03T05:49:14;15.20;90.90
65044;DHT22;51617;48.158;16.464;2022-09-03T05:51:40;15.20;90.70
65044;DHT22;51617;48.158;16.464;2022-09-03T05:54:07;15.20;91.00
65044;DHT22;51617;48.158;16.464;2022-09-03T05:56:33;15.30;90.70
65044;DHT22;51617;48.158;16.464;2022-09-03T05:59:01;15.30;90.80
65044;DHT22;51617;48.158;16.464;2022-09-03T06:01:28;15.30;91.20
65044;DHT22;51617;48.158;16.464;2022-09-03T06:06:20;15.40;90.90
65044;DHT22;51617;48.158;16.464;2022-09-03T06:08:50;15.50;91.30
65044;DHT22;51617;48.158;16.464;2022-09-03T06:11:15;15.60;91.10
65044;DHT22;51617;48.158;16.464;2022-09-03T06:13:41;15.80;90.90
65044;DHT22;51617;48.158;16.464;2022-09-03T06:16:07;15.90;91.10
65044;DHT22;51617;48.158;16.464;2022-09-03T06:18:33;16.10;90.80
65044;DHT22;51617;48.158;16.464;2022-09-03T06:21:00;16.00;90.90
65044;DHT22;51617;48.158;16.464;2022-09-03T06:23:26;16.10;90.40
65044;DHT22;51617;48.158;16.464;2022-09-03T06:25:58;16.20;90.20
65044;DHT22;51617;48.158;16.464;2022-09-03T06:28:24;16.30;90.30
65044;DHT22;51617;48.158;16.464;2022-09-03T06:30:51;16.40;90.30
65044;DHT22;51617;48.158;16.464;2022-09-03T06:33:17;16.50;90.10
65044;DHT22;51617;48.158;16.464;2022-09-03T06:35:43;16.40;90.20
65044;DHT22;51617;48.158;16.464;2022-09-03T06:38:08;16.40;90.30
65044;DHT22;51617;48.158;16.464;2022-09-03T06:40:37;16.50;90.30
65044;DHT22;51617;48.158;16.464;2022-09-03T06:43:02;16.70;90.20
65044;DHT22;51617;48.158;16.464;2022-09-03T06:45:31;16.70;89.60
65044;DHT22;51617;48.158;16.464;2022-09-03T06:47:56;16.80;89.80
65044;DHT22;51617;48.158;16.464;2022-09-03T06:50:22;16.80;88.90
65044;DHT22;51617;48.158;16.464;2022-09-03T06:52:51;16.90;89.50
65044;DHT22;51617;48.158;16.464;2022-09-03T06:55:22;17.00;89.10
65044;DHT22;51617;48.158;16.464;2022-09-03T06:57:47;17.00;89.00
65044;DHT22;51617;48.158;16.464;2022-09-03T07:00:13;17.00;88.80
65044;DHT22;51617;48.158;16.464;2022-09-03T07:02:39;17.10;89.20
65044;DHT22;51617;48.158;16.464;2022-09-03T07:05:06;17.20;88.60
65044;DHT22;51617;48.158;16.464;2022-09-03T07:07:32;17.30;89.00
65044;DHT22;51617;48.158;16.464;2022-09-03T07:09:57;17.30;88.10
65044;DHT22;51617;48.158;16.464;2022-09-03T07:12:23;17.40;88.00
65044;DHT22;51617;48.158;16.464;2022-09-03T07:14:48;17.50;88.30
65044;DHT22;51617;48.158;16.464;2022-09-03T07:17:15;17.60;88.30
65044;DHT22;51617;48.158;16.464;2022-09-03T07:19:40;17.70;88.20
65044;DHT22;51617;48.158;16.464;2022-09-03T07:22:05;17.80;87.80
65044;DHT22;51617;48.158;16.464;2022-09-03T07:24:32;17.90;87.00
65044;DHT22;51617;48.158;16.464;2022-09-03T07:26:58;18.10;86.70
65044;DHT22;51617;48.158;16.464;2022-09-03T07:29:23;18.10;86.40
65044;DHT22;51617;48.158;16.464;2022-09-03T07:31:49;18.20;87.50
65044;DHT22;51617;48.158;16.464;2022-09-03T07:34:15;18.30;86.50
65044;DHT22;51617;48.158;16.464;2022-09-03T07:36:42;18.50;85.80
65044;DHT22;51617;48.158;16.464;2022-09-03T07:39:08;18.50;86.00
65044;DHT22;51617;48.158;16.464;2022-09-03T07:41:35;18.70;86.10
65044;DHT22;51617;48.158;16.464;2022-09-03T07:44:01;18.90;85.60
65044;DHT22;51617;48.158;16.464;2022-09-03T07:46:30;19.00;85.20
65044;DHT22;51617;48.158;16.464;2022-09-03T07:48:57;19.20;84.70
65044;DHT22;51617;48.158;16.464;2022-09-03T07:51:26;19.20;84.20
65044;DHT22;51617;48.158;16.464;2022-09-03T07:53:53;19.40;83.90
65044;DHT22;51617;48.158;16.464;2022-09-03T07:56:20;19.60;83.50
65044;DHT22;51617;48.158;16.464;2022-09-03T07:58:46;19.70;83.20
65044;DHT22;51617;48.158;16.464;2022-09-03T08:01:13;19.90;82.40
65044;DHT22;51617;48.158;16.464;2022-09-03T08:03:42;20.00;82.00
65044;DHT22;51617;48.158;16.464;2022-09-03T08:06:08;20.30;82.00
65044;DHT22;51617;48.158;16.464;2022-09-03T08:08:34;20.30;80.80
65044;DHT22;51617;48.158;16.464;2022-09-03T08:11:07;20.50;79.50
65044;DHT22;51617;48.158;16.464;2022-09-03T08:13:45;20.70;80.10
65044;DHT22;51617;48.158;16.464;2022-09-03T08:16:13;20.80;79.60
65044;DHT22;51617;48.158;16.464;2022-09-03T08:18:39;20.90;79.40
65044;DHT22;51617;48.158;16.464;2022-09-03T08:21:05;21.00;79.50
65044;DHT22;51617;48.158;16.464;2022-09-03T08:23:32;21.10;79.40
65044;DHT22;51617;48.158;16.464;2022-09-03T08:26:00;21.30;78.90
65044;DHT22;51617;48.158;16.464;2022-09-03T08:28:26;21.30;78.20
65044;DHT22;51617;48.158;16.464;2022-09-03T08:30:52;21.50;77.30
65044;DHT22;51617;48.158;16.464;2022-09-03T08:33:17;21.50;77.00
65044;DHT22;51617;48.158;16.464;2022-09-03T08:36:22;21.70;77.40
65044;DHT22;51617;48.158;16.464;2022-09-03T08:38:47;21.80;76.50
65044;DHT22;51617;48.158;16.464;2022-09-03T08:46:18;22.10;75.40
65044;DHT22;51617;48.158;16.464;2022-09-03T08:48:44;22.20;74.90
65044;DHT22;51617;48.158;16.464;2022-09-03T08:51:11;22.30;75.60
65044;DHT22;51617;48.158;16.464;2022-09-03T08:53:44;22.30;74.80
65044;DHT22;51617;48.158;16.464;2022-09-03T08:56:12;22.40;74.30
65044;DHT22;51617;48.158;16.464;2022-09-03T08:58:38;22.50;74.70
65044;DHT22;51617;48.158;16.464;2022-09-03T09:06:20;22.70;74.40
65044;DHT22;51617;48.158;16.464;2022-09-03T09:14:13;22.80;74.10
65044;DHT22;51617;48.158;16.464;2022-09-03T09:19:09;23.10;73.20
65044;DHT22;51617;48.158;16.464;2022-09-03T09:21:58;23.20;72.90
65044;DHT22;51617;48.158;16.464;2022-09-03T09:24:26;23.20;71.70
65044;DHT22;51617;48.158;16.464;2022-09-03T09:26:59;23.30;72.30
65044;DHT22;51617;48.158;16.464;2022-09-03T09:29:28;23.40;72.00
65044;DHT22;51617;48.158;16.464;2022-09-03T09:31:55;23.40;71.40
65044;DHT22;51617;48.158;16.464;2022-09-03T09:34:21;23.40;71.20
65044;DHT22;51617;48.158;16.464;2022-09-03T09:36:48;23.40;71.30
65044;DHT22;51617;48.158;16.464;2022-09-03T09:39:14;23.50;71.20
65044;DHT22;51617;48.158;16.464;2022-09-03T09:41:40;23.60;70.90
65044;DHT22;51617;48.158;16.464;2022-09-03T09:44:06;23.60;71.00
65044;DHT22;51617;48.158;16.464;2022-09-03T09:46:34;23.70;71.10
65044;DHT22;51617;48.158;16.464;2022-09-03T09:48:59;23.60;70.60
65044;DHT22;51617;48.158;16.464;2022-09-03T09:51:26;23.50;69.80
65044;DHT22;51617;48.158;16.464;2022-09-03T09:56:26;23.50;70.80
65044;DHT22;51617;48.158;16.464;2022-09-03T09:59:05;23.40;70.90
65044;DHT22;51617;48.158;16.464;2022-09-03T10:01:32;23.50;70.90
65044;DHT22;51617;48.158;16.464;2022-09-03T10:03:58;23.60;70.00
65044;DHT22;51617;48.158;16.464;2022-09-03T10:06:28;23.70;70.30
65044;DHT22;51617;48.158;16.464;2022-09-03T10:09:14;23.80;70.50
65044;DHT22;51617;48.158;16.464;2022-09-03T10:11:48;23.90;70.30
65044;DHT22;51617;48.158;16.464;2022-09-03T10:14:22;24.00;70.50
65044;DHT22;51617;48.158;16.464;2022-09-03T10:16:51;24.10;70.10
65044;DHT22;51617;48.158;16.464;2022-09-03T10:19:19;24.30;69.40
65044;DHT22;51617;48.158;16.464;2022-09-03T10:22:04;24.30;69.70
65044;DHT22;51617;48.158;16.464;2022-09-03T10:24:37;24.30;69.00
65044;DHT22;51617;48.158;16.464;2022-09-03T10:27:06;24.40;68.80
65044;DHT22;51617;48.158;16.464;2022-09-03T10:29:34;24.40;68.10
65044;DHT22;51617;48.158;16.464;2022-09-03T10:34:40;24.50;68.20
65044;DHT22;51617;48.158;16.464;2022-09-03T10:44:45;25.00;67.30
65044;DHT22;51617;48.158;16.464;2022-09-03T10:52:39;25.40;65.20
65044;DHT22;51617;48.158;16.464;2022-09-03T11:00:31;25.60;64.70
65044;DHT22;51617;48.158;16.464;2022-09-03T11:05:39;25.60;64.80
65044;DHT22;51617;48.158;16.464;2022-09-03T11:10:42;25.70;64.40
65044;DHT22;51617;48.158;16.464;2022-09-03T11:15:51;25.90;64.10
65044;DHT22;51617;48.158;16.464;2022-09-03T11:20:55;26.10;64.10
65044;DHT22;51617;48.158;16.464;2022-09-03T11:23:24;26.20;63.40
65044;DHT22;51617;48.158;16.464;2022-09-03T11:25:52;26.30;62.70
65044;DHT22;51617;48.158;16.464;2022-09-03T11:33:31;26.20;62.00
65044;DHT22;51617;48.158;16.464;2022-09-03T11:35:58;26.20;61.60
65044;DHT22;51617;48.158;16.464;2022-09-03T11:38:26;26.20;62.00
65044;DHT22;51617;48.158;16.464;2022-09-03T11:43:31;26.40;61.60
65044;DHT22;51617;48.158;16.464;2022-09-03T11:46:00;26.40;61.30
65044;DHT22;51617;48.158;16.464;2022-09-03T11:48:35;26.40;61.60
65044;DHT22;51617;48.158;16.464;2022-09-03T11:51:01;26.40;60.90
65044;DHT22;51617;48.158;16.464;2022-09-03T11:53:34;26.50;61.30
65044;DHT22;51617;48.158;16.464;2022-09-03T11:56:08;26.50;61.00
65044;DHT22;51617;48.158;16.464;2022-09-03T11:58:37;26.60;60.60
65044;DHT22;51617;48.158;16.464;2022-09-03T12:01:06;26.70;60.40
65044;DHT22;51617;48.158;16.464;2022-09-03T12:03:43;26.70;59.30
65044;DHT22;51617;48.158;16.464;2022-09-03T12:13:50;27.00;58.90
65044;DHT22;51617;48.158;16.464;2022-09-03T12:19:03;27.30;59.10
65044;DHT22;51617;48.158;16.464;2022-09-03T12:21:38;27.40;58.40
65044;DHT22;51617;48.158;16.464;2022-09-03T12:24:04;27.60;58.20
65044;DHT22;51617;48.158;16.464;2022-09-03T12:26:37;27.50;57.80
65044;DHT22;51617;48.158;16.464;2022-09-03T12:29:02;27.60;57.60
65044;DHT22;51617;48.158;16.464;2022-09-03T12:31:30;27.70;57.50
65044;DHT22;51617;48.158;16.464;2022-09-03T12:36:35;27.90;57.00
65044;DHT22;51617;48.158;16.464;2022-09-03T12:39:08;27.90;57.00
65044;DHT22;51617;48.158;16.464;2022-09-03T12:41:34;28.00;56.40
65044;DHT22;51617;48.158;16.464;2022-09-03T12:44:00;28.10;55.80
65044;DHT22;51617;48.158;16.464;2022-09-03T12:46:29;28.20;56.10
65044;DHT22;51617;48.158;16.464;2022-09-03T12:48:58;28.20;55.80
65044;DHT22;51617;48.158;16.464;2022-09-03T12:51:33;28.40;55.80
65044;DHT22;51617;48.158;16.464;2022-09-03T12:54:00;28.50;55.20
65044;DHT22;51617;48.158;16.464;2022-09-03T12:56:26;28.50;54.40
65044;DHT22;51617;48.158;16.464;2022-09-03T12:58:57;28.40;54.30
65044;DHT22;51617;48.158;16.464;2022-09-03T13:03:52;28.30;54.80
65044;DHT22;51617;48.158;16.464;2022-09-03T13:06:23;28.40;54.50
65044;DHT22;51617;48.158;16.464;2022-09-03T13:08:57;28.50;54.60
65044;DHT22;51617;48.158;16.464;2022-09-03T13:11:24;28.50;53.90
65044;DHT22;51617;48.158;16.464;2022-09-03T13:19:00;28.70;53.90
65044;DHT22;51617;48.158;16.464;2022-09-03T13:21:40;28.70;53.50
65044;DHT22;51617;48.158;16.464;2022-09-03T13:24:15;28.80;53.40
65044;DHT22;51617;48.158;16.464;2022-09-03T13:29:47;28.70;53.00
65044;DHT22;51617;48.158;16.464;2022-09-03T13:34:49;28.70;53.70
65044;DHT22;51617;48.158;16.464;2022-09-03T13:37:22;28.80;53.50
65044;DHT22;51617;48.158;16.464;2022-09-03T13:39:51;28.80;53.20
65044;DHT22;51617;48.158;16.464;2022-09-03T13:44:49;28.80;53.40
65044;DHT22;51617;48.158;16.464;2022-09-03T13:52:50;29.00;53.50
65044;DHT22;51617;48.158;16.464;2022-09-03T13:57:53;29.00;53.00
65044;DHT22;51617;48.158;16.464;2022-09-03T14:00:22;28.90;53.00
65044;DHT22;51617;48.158;16.464;2022-09-03T14:07:56;29.00;53.00
65044;DHT22;51617;48.158;16.464;2022-09-03T14:13:05;28.90;53.10
65044;DHT22;51617;48.158;16.464;2022-09-03T14:15:34;29.00;52.60
65044;DHT22;51617;48.158;16.464;2022-09-03T14:20:46;29.20;52.60
65044;DHT22;51617;48.158;16.464;2022-09-03T14:25:52;29.60;52.00
65044;DHT22;51617;48.158;16.464;2022-09-03T14:31:06;30.00;51.10
65044;DHT22;51617;48.158;16.464;2022-09-03T14:41:15;29.70;51.30
65044;DHT22;51617;48.158;16.464;2022-09-03T14:46:26;29.80;51.00
65044;DHT22;51617;48.158;16.464;2022-09-03T14:49:16;29.70;51.30
65044;DHT22;51617;48.158;16.464;2022-09-03T15:10:30;29.40;51.60
65044;DHT22;51617;48.158;16.464;2022-09-03T15:13:06;29.40;51.80
65044;DHT22;51617;48.158;16.464;2022-09-03T15:15:35;29.50;51.90
65044;DHT22;51617;48.158;16.464;2022-09-03T15:18:31;29.70;51.90
65044;DHT22;51617;48.158;16.464;2022-09-03T15:21:15;29.80;51.80
65044;DHT22;51617;48.158;16.464;2022-09-03T15:23:49;29.60;51.60
65044;DHT22;51617;48.158;16.464;2022-09-03T15:29:10;29.40;51.50
65044;DHT22;51617;48.158;16.464;2022-09-03T15:31:46;29.30;51.90
65044;DHT22;51617;48.158;16.464;2022-09-03T15:34:18;29.60;51.70
65044;DHT22;51617;48.158;16.464;2022-09-03T15:36:50;30.10;51.80
65044;DHT22;51617;48.158;16.464;2022-09-03T15:39:22;31.50;49.90
65044;DHT22;51617;48.158;16.464;2022-09-03T15:41:52;33.10;48.30
65044;DHT22;51617;48.158;16.464;2022-09-03T15:44:21;34.20;46.00
65044;DHT22;51617;48.158;16.464;2022-09-03T15:54:37;36.30;41.80
65044;DHT22;51617;48.158;16.464;2022-09-03T15:57:12;35.40;41.80
65044;DHT22;51617;48.158;16.464;2022-09-03T16:02:12;34.10;43.60
65044;DHT22;51617;48.158;16.464;2022-09-03T16:04:47;34.60;43.70
65044;DHT22;51617;48.158;16.464;2022-09-03T16:10:03;35.90;41.90
65044;DHT22;51617;48.158;16.464;2022-09-03T16:15:22;34.90;41.50
65044;DHT22;51617;48.158;16.464;2022-09-03T16:20:22;33.30;44.10
65044;DHT22;51617;48.158;16.464;2022-09-03T16:22:57;33.30;44.10
65044;DHT22;51617;48.158;16.464;2022-09-03T16:25:29;32.90;44.40
65044;DHT22;51617;48.158;16.464;2022-09-03T16:30:45;32.00;46.20
65044;DHT22;51617;48.158;16.464;2022-09-03T16:33:22;33.00;45.20
65044;DHT22;51617;48.158;16.464;2022-09-03T16:35:59;33.10;44.50
65044;DHT22;51617;48.158;16.464;2022-09-03T16:41:18;32.80;44.10
65044;DHT22;51617;48.158;16.464;2022-09-03T16:43:56;32.10;44.80
65044;DHT22;51617;48.158;16.464;2022-09-03T16:46:33;32.10;45.60
65044;DHT22;51617;48.158;16.464;2022-09-03T16:51:48;31.90;45.90
65044;DHT22;51617;48.158;16.464;2022-09-03T16:54:20;31.40;46.30
65044;DHT22;51617;48.158;16.464;2022-09-03T16:56:54;30.80;47.10
65044;DHT22;51617;48.158;16.464;2022-09-03T16:59:39;30.10;47.70
65044;DHT22;51617;48.158;16.464;2022-09-03T17:02:27;29.40;48.70
65044;DHT22;51617;48.158;16.464;2022-09-03T17:05:04;28.80;50.00
65044;DHT22;51617;48.158;16.464;2022-09-03T17:10:13;27.70;52.20
65044;DHT22;51617;48.158;16.464;2022-09-03T17:15:11;27.00;53.60
65044;DHT22;51617;48.158;16.464;2022-09-03T17:18:02;26.80;53.80
65044;DHT22;51617;48.158;16.464;2022-09-03T17:23:00;26.40;54.90
65044;DHT22;51617;48.158;16.464;2022-09-03T17:25:35;26.20;55.30
65044;DHT22;51617;48.158;16.464;2022-09-03T17:32:56;25.80;56.60
65044;DHT22;51617;48.158;16.464;2022-09-03T17:35:47;25.70;56.90
65044;DHT22;51617;48.158;16.464;2022-09-03T17:40:52;25.50;57.40
65044;DHT22;51617;48.158;16.464;2022-09-03T17:46:22;25.20;58.40
65044;DHT22;51617;48.158;16.464;2022-09-03T17:48:55;25.10;59.10
65044;DHT22;51617;48.158;16.464;2022-09-03T17:53:56;25.00;59.00
65044;DHT22;51617;48.158;16.464;2022-09-03T17:56:59;25.00;59.10
65044;DHT22;51617;48.158;16.464;2022-09-03T18:02:01;24.90;59.90
65044;DHT22;51617;48.158;16.464;2022-09-03T18:04:33;24.80;60.00
65044;DHT22;51617;48.158;16.464;2022-09-03T18:07:07;24.70;60.40
65044;DHT22;51617;48.158;16.464;2022-09-03T18:09:36;24.70;60.50
65044;DHT22;51617;48.158;16.464;2022-09-03T18:12:11;24.60;60.90
65044;DHT22;51617;48.158;16.464;2022-09-03T18:17:12;24.50;61.50
65044;DHT22;51617;48.158;16.464;2022-09-03T18:22:39;24.40;61.60
65044;DHT22;51617;48.158;16.464;2022-09-03T18:25:25;24.40;62.20
65044;DHT22;51617;48.158;16.464;2022-09-03T18:28:11;24.40;62.50
65044;DHT22;51617;48.158;16.464;2022-09-03T18:30:56;24.30;62.90
65044;DHT22;51617;48.158;16.464;2022-09-03T18:33:41;24.30;63.00
65044;DHT22;51617;48.158;16.464;2022-09-03T18:36:25;24.20;63.20
65044;DHT22;51617;48.158;16.464;2022-09-03T18:48:18;24.00;64.40
65044;DHT22;51617;48.158;16.464;2022-09-03T18:51:06;23.90;64.50
65044;DHT22;51617;48.158;16.464;2022-09-03T18:56:46;23.90;65.10
65044;DHT22;51617;48.158;16.464;2022-09-03T19:05:49;23.80;65.80
65044;DHT22;51617;48.158;16.464;2022-09-03T19:08:39;23.80;65.90
65044;DHT22;51617;48.158;16.464;2022-09-03T19:14:11;23.70;66.30
65044;DHT22;51617;48.158;16.464;2022-09-03T19:22:33;23.60;67.10
65044;DHT22;51617;48.158;16.464;2022-09-03T19:25:17;23.50;67.30
65044;DHT22;51617;48.158;16.464;2022-09-03T19:28:15;23.50;66.80
65044;DHT22;51617;48.158;16.464;2022-09-03T19:31:04;23.40;67.60
65044;DHT22;51617;48.158;16.464;2022-09-03T19:39:31;23.30;68.30
65044;DHT22;51617;48.158;16.464;2022-09-03T19:42:37;23.20;67.90
65044;DHT22;51617;48.158;16.464;2022-09-03T19:48:32;23.20;68.70
65044;DHT22;51617;48.158;16.464;2022-09-03T19:51:20;23.20;68.80
65044;DHT22;51617;48.158;16.464;2022-09-03T19:54:05;23.10;68.10
65044;DHT22;51617;48.158;16.464;2022-09-03T19:56:50;23.10;68.10
65044;DHT22;51617;48.158;16.464;2022-09-03T19:59:38;23.20;68.60
65044;DHT22;51617;48.158;16.464;2022-09-03T20:02:23;23.20;68.40
65044;DHT22;51617;48.158;16.464;2022-09-03T20:05:09;23.20;68.40
65044;DHT22;51617;48.158;16.464;2022-09-03T20:07:53;23.20;68.40
65044;DHT22;51617;48.158;16.464;2022-09-03T20:10:38;23.10;68.60
65044;DHT22;51617;48.158;16.464;2022-09-03T20:15:38;23.10;68.80
65044;DHT22;51617;48.158;16.464;2022-09-03T20:18:10;23.00;68.30
65044;DHT22;51617;48.158;16.464;2022-09-03T20:20:44;23.00;68.90
65044;DHT22;51617;48.158;16.464;2022-09-03T20:23:18;23.00;69.00
65044;DHT22;51617;48.158;16.464;2022-09-03T20:25:48;23.00;69.00
65044;DHT22;51617;48.158;16.464;2022-09-03T20:28:25;23.00;69.00
65044;DHT22;51617;48.158;16.464;2022-09-03T20:30:56;23.00;69.10
65044;DHT22;51617;48.158;16.464;2022-09-03T20:48:56;22.70;69.80
65044;DHT22;51617;48.158;16.464;2022-09-03T20:51:24;22.70;69.90
65044;DHT22;51617;48.158;16.464;2022-09-03T20:56:32;22.60;70.00
65044;DHT22;51617;48.158;16.464;2022-09-03T20:59:12;22.60;70.20
65044;DHT22;51617;48.158;16.464;2022-09-03T21:01:48;22.60;70.30